createdAt,value
2018-12-30T00:00:50.534Z,7.2
2018-12-30T00:01:50.837Z,7.1
2018-12-30T00:02:51.139Z,7.09
2018-12-30T00:03:50.703Z,7.15
2018-12-30T00:04:50.991Z,7.15
2018-12-30T00:05:50.972Z,7.13
2018-12-30T00:06:50.401Z,7.16
2018-12-30T00:07:50.829Z,7.23
2018-12-30T00:08:50.441Z,7.17
2018-12-30T00:09:51.047Z,7.17
2018-12-30T00:10:50.415Z,7.23
2018-12-30T00:11:50.398Z,7.17
2018-12-30T00:12:51.016Z,7.21
2018-12-30T00:13:50.373Z,7.12
2018-12-30T00:14:50.357Z,7.17
2018-12-30T00:15:50.347Z,7.23
2018-12-30T00:16:50.348Z,7.23
2018-12-30T00:17:50.322Z,7.25
2018-12-30T00:18:50.364Z,7.23
2018-12-30T00:19:50.302Z,7.31
2018-12-30T00:20:50.999Z,7.35
2018-12-30T00:21:50.274Z,7.3
2018-12-30T00:22:50.272Z,7.28
2018-12-30T00:23:50.264Z,7.39
2018-12-30T00:24:50.240Z,7.48
2018-12-30T00:25:50.236Z,7.49
2018-12-30T00:26:50.218Z,7.49
2018-12-30T00:27:50.210Z,7.43
2018-12-30T00:28:50.729Z,7.42
2018-12-30T00:29:50.171Z,7.4
2018-12-30T00:30:50.173Z,7.49
2018-12-30T00:31:50.162Z,7.48
2018-12-30T00:32:50.207Z,7.53
2018-12-30T00:33:50.135Z,7.52
2018-12-30T00:34:50.118Z,7.57
2018-12-30T00:35:50.121Z,7.5
2018-12-30T00:36:50.630Z,7.58
2018-12-30T00:37:50.074Z,7.64
2018-12-30T00:38:50.067Z,7.5
2018-12-30T00:39:50.046Z,7.53
2018-12-30T00:40:50.051Z,7.53
2018-12-30T00:41:50.022Z,7.61
2018-12-30T00:42:50.011Z,7.55
2018-12-30T00:43:50.007Z,7.6
2018-12-30T00:44:50.249Z,7.64
2018-12-30T00:45:49.974Z,7.68
2018-12-30T00:46:49.961Z,7.75
2018-12-30T00:47:49.711Z,7.82
2018-12-30T00:48:49.943Z,7.79
2018-12-30T00:49:49.937Z,7.79
2018-12-30T00:50:50.004Z,7.77
2018-12-30T00:51:49.940Z,7.8
2018-12-30T00:52:49.900Z,7.86
2018-12-30T00:53:50.163Z,7.77
2018-12-30T00:54:49.859Z,7.8
2018-12-30T00:55:49.849Z,7.8
2018-12-30T00:56:49.909Z,7.89
2018-12-30T00:57:49.837Z,7.83
2018-12-30T00:58:49.832Z,7.86
2018-12-30T00:59:49.560Z,7.9
2018-12-30T01:00:49.875Z,7.85
2018-12-30T01:01:50.509Z,7.89
2018-12-30T01:02:49.779Z,7.87
2018-12-30T01:03:49.636Z,7.86
2018-12-30T01:04:49.756Z,8
2018-12-30T01:05:49.745Z,7.98
2018-12-30T01:06:49.730Z,7.95
2018-12-30T01:07:49.708Z,7.92
2018-12-30T01:08:49.696Z,7.86
2018-12-30T01:09:50.294Z,7.86
2018-12-30T01:10:49.677Z,7.9
2018-12-30T01:11:49.664Z,7.92
2018-12-30T01:12:49.672Z,7.95
2018-12-30T01:13:49.646Z,7.98
2018-12-30T01:14:49.633Z,7.97
2018-12-30T01:15:49.620Z,7.9
2018-12-30T01:16:49.841Z,7.92
2018-12-30T01:17:50.110Z,8.01
2018-12-30T01:18:49.582Z,7.98
2018-12-30T01:19:49.559Z,8
2018-12-30T01:20:49.560Z,8.05
2018-12-30T01:21:49.546Z,8
2018-12-30T01:22:49.521Z,8.02
2018-12-30T01:23:49.513Z,8.07
2018-12-30T01:24:49.510Z,8.02
2018-12-30T01:25:49.693Z,8.04
2018-12-30T01:26:49.793Z,8
2018-12-30T01:27:49.462Z,8.04
2018-12-30T01:28:49.455Z,8.04
2018-12-30T01:29:49.444Z,8.05
2018-12-30T01:30:49.438Z,8.02
2018-12-30T01:31:49.422Z,8.01
2018-12-30T01:32:49.410Z,8
2018-12-30T01:33:49.393Z,7.95
2018-12-30T01:34:50.038Z,7.93
2018-12-30T01:35:49.388Z,7.79
2018-12-30T01:36:49.354Z,7.97
2018-12-30T01:37:49.346Z,7.85
2018-12-30T01:38:49.337Z,7.89
2018-12-30T01:39:49.331Z,7.92
2018-12-30T01:40:49.329Z,7.9
2018-12-30T01:41:49.299Z,7.89
2018-12-30T01:42:49.503Z,7.93
2018-12-30T01:43:49.328Z,7.93
2018-12-30T01:44:49.254Z,7.9
2018-12-30T01:45:49.239Z,7.95
2018-12-30T01:46:49.245Z,8
2018-12-30T01:47:49.227Z,7.82
2018-12-30T01:48:49.221Z,7.87
2018-12-30T01:49:49.205Z,7.93
2018-12-30T01:50:49.194Z,7.87
2018-12-30T01:51:49.746Z,7.98
2018-12-30T01:52:49.170Z,7.92
2018-12-30T01:53:49.152Z,7.93
2018-12-30T01:54:49.148Z,7.92
2018-12-30T01:55:49.121Z,7.97
2018-12-30T01:56:49.113Z,7.97
2018-12-30T01:57:49.120Z,7.95
2018-12-30T01:58:49.084Z,8.07
2018-12-30T01:59:49.277Z,8.05
2018-12-30T02:00:49.095Z,8.05
2018-12-30T02:01:49.048Z,8.02
2018-12-30T02:02:49.060Z,8.02
2018-12-30T02:03:49.021Z,8.05
2018-12-30T02:04:49.003Z,8.05
2018-12-30T02:05:49.008Z,8.02
2018-12-30T02:06:48.983Z,8.05
2018-12-30T02:07:48.974Z,8.1
2018-12-30T02:08:49.483Z,8.15
2018-12-30T02:09:48.945Z,8.05
2018-12-30T02:10:48.940Z,8.04
2018-12-30T02:11:48.915Z,8.05
2018-12-30T02:12:48.919Z,8.08
2018-12-30T02:13:48.912Z,8
2018-12-30T02:14:48.897Z,8.07
2018-12-30T02:15:48.875Z,7.98
2018-12-30T02:16:48.862Z,8
2018-12-30T02:17:49.257Z,8
2018-12-30T02:18:48.836Z,8.02
2018-12-30T02:19:48.825Z,8.02
2018-12-30T02:20:48.829Z,8.01
2018-12-30T02:21:48.801Z,8.01
2018-12-30T02:22:48.796Z,8.01
2018-12-30T02:23:48.776Z,8.2
2018-12-30T02:24:48.775Z,8.11
2018-12-30T02:25:48.958Z,8.01
2018-12-30T02:26:49.037Z,8.15
2018-12-30T02:27:48.726Z,8.12
2018-12-30T02:28:48.722Z,8.15
2018-12-30T02:29:48.704Z,8.02
2018-12-30T02:30:48.692Z,8.12
2018-12-30T02:31:48.688Z,8.15
2018-12-30T02:32:48.715Z,8.15
2018-12-30T02:33:48.667Z,8.11
2018-12-30T02:34:48.847Z,8.02
2018-12-30T02:35:48.663Z,8.11
2018-12-30T02:36:48.630Z,8.15
2018-12-30T02:37:48.613Z,8.16
2018-12-30T02:38:48.607Z,8.15
2018-12-30T02:39:48.582Z,8.15
2018-12-30T02:40:48.573Z,8.15
2018-12-30T02:41:48.557Z,8.16
2018-12-30T02:42:48.670Z,8.25
2018-12-30T02:43:49.085Z,8.25
2018-12-30T02:44:48.532Z,8.2
2018-12-30T02:45:48.516Z,8.1
2018-12-30T02:46:48.518Z,8.19
2018-12-30T02:47:48.497Z,8.19
2018-12-30T02:48:48.476Z,8.16
2018-12-30T02:49:48.476Z,8.2
2018-12-30T02:50:48.466Z,8.18
2018-12-30T02:51:54.999Z,8.16
2018-12-30T02:52:48.976Z,8.1
2018-12-30T02:53:48.431Z,8.04
2018-12-30T02:54:48.418Z,8.12
2018-12-30T02:55:48.417Z,8.15
2018-12-30T02:56:48.409Z,8.12
2018-12-30T02:57:48.373Z,8.15
2018-12-30T02:58:48.361Z,8.16
2018-12-30T02:59:48.345Z,8.16
2018-12-30T03:00:48.348Z,8.18
2018-12-30T03:01:48.992Z,8.12
2018-12-30T03:02:48.300Z,8.2
2018-12-30T03:03:48.288Z,8.12
2018-12-30T03:04:48.293Z,8.1
2018-12-30T03:05:48.268Z,8.12
2018-12-30T03:06:48.256Z,8.19
2018-12-30T03:07:48.261Z,8.25
2018-12-30T03:08:48.229Z,8.3
2018-12-30T03:09:48.225Z,8.22
2018-12-30T03:10:48.707Z,8.36
2018-12-30T03:11:48.198Z,8.29
2018-12-30T03:12:48.189Z,8.36
2018-12-30T03:13:48.169Z,8.29
2018-12-30T03:14:48.161Z,8.29
2018-12-30T03:15:48.153Z,8.34
2018-12-30T03:16:48.134Z,8.28
2018-12-30T03:17:48.132Z,8.34
2018-12-30T03:18:48.113Z,8.29
2018-12-30T03:19:48.353Z,8.33
2018-12-30T03:20:48.096Z,8.33
2018-12-30T03:21:48.087Z,8.33
2018-12-30T03:22:48.070Z,8.36
2018-12-30T03:23:48.050Z,8.37
2018-12-30T03:24:48.033Z,8.37
2018-12-30T03:25:48.023Z,8.36
2018-12-30T03:26:48.008Z,8.38
2018-12-30T03:27:48.001Z,8.34
2018-12-30T03:28:47.989Z,8.41
2018-12-30T03:29:47.971Z,8.36
2018-12-30T03:30:47.987Z,8.4
2018-12-30T03:31:47.963Z,8.36
2018-12-30T03:32:47.971Z,8.36
2018-12-30T03:33:47.947Z,8.33
2018-12-30T03:34:47.914Z,8.33
2018-12-30T03:35:47.900Z,8.33
2018-12-30T03:36:47.891Z,8.28
2018-12-30T03:37:47.881Z,8.38
2018-12-30T03:38:47.866Z,8.37
2018-12-30T03:39:47.854Z,8.44
2018-12-30T03:40:47.855Z,8.36
2018-12-30T03:41:47.840Z,8.5
2018-12-30T03:42:47.833Z,8.45
2018-12-30T03:43:47.817Z,8.43
2018-12-30T03:44:47.793Z,8.45
2018-12-30T03:45:47.783Z,8.48
2018-12-30T03:46:47.777Z,8.55
2018-12-30T03:47:47.763Z,8.59
2018-12-30T03:48:47.746Z,8.5
2018-12-30T03:49:47.754Z,8.48
2018-12-30T03:50:47.723Z,8.56
2018-12-30T03:51:47.716Z,8.52
2018-12-30T03:52:47.702Z,8.53
2018-12-30T03:53:47.690Z,8.52
2018-12-30T03:54:47.684Z,8.53
2018-12-30T03:55:47.677Z,8.52
2018-12-30T03:56:47.664Z,8.61
2018-12-30T03:57:47.652Z,8.59
2018-12-30T03:58:47.636Z,8.63
2018-12-30T03:59:47.623Z,8.62
2018-12-30T04:00:47.608Z,8.61
2018-12-30T04:01:47.596Z,8.62
2018-12-30T04:02:47.585Z,8.63
2018-12-30T04:03:47.585Z,8.62
2018-12-30T04:04:47.568Z,8.58
2018-12-30T04:05:47.566Z,8.61
2018-12-30T04:06:47.547Z,8.66
2018-12-30T04:07:47.528Z,8.65
2018-12-30T04:08:47.519Z,8.66
2018-12-30T04:09:47.503Z,8.59
2018-12-30T04:10:47.496Z,8.7
2018-12-30T04:11:47.489Z,8.68
2018-12-30T04:12:47.475Z,8.65
2018-12-30T04:13:47.472Z,8.7
2018-12-30T04:14:47.446Z,8.66
2018-12-30T04:15:47.443Z,8.68
2018-12-30T04:16:47.430Z,8.73
2018-12-30T04:17:47.431Z,8.74
2018-12-30T04:18:47.400Z,8.71
2018-12-30T04:19:47.388Z,8.79
2018-12-30T04:20:47.376Z,8.66
2018-12-30T04:21:47.366Z,8.7
2018-12-30T04:22:47.356Z,8.71
2018-12-30T04:23:47.356Z,8.83
2018-12-30T04:24:47.341Z,8.71
2018-12-30T04:25:47.343Z,8.83
2018-12-30T04:26:47.308Z,8.84
2018-12-30T04:27:47.298Z,8.77
2018-12-30T04:28:47.285Z,8.74
2018-12-30T04:29:47.316Z,8.77
2018-12-30T04:30:47.263Z,8.84
2018-12-30T04:31:47.260Z,8.77
2018-12-30T04:32:47.243Z,8.79
2018-12-30T04:33:47.227Z,8.81
2018-12-30T04:34:47.219Z,8.83
2018-12-30T04:35:47.205Z,8.8
2018-12-30T04:36:47.192Z,8.83
2018-12-30T04:37:47.179Z,8.86
2018-12-30T04:38:47.169Z,8.86
2018-12-30T04:39:47.153Z,8.95
2018-12-30T04:40:47.157Z,8.91
2018-12-30T04:41:47.157Z,8.92
2018-12-30T04:42:47.126Z,8.91
2018-12-30T04:43:47.110Z,8.92
2018-12-30T04:44:47.103Z,8.91
2018-12-30T04:45:47.090Z,8.91
2018-12-30T04:46:47.080Z,8.86
2018-12-30T04:47:47.074Z,8.96
2018-12-30T04:48:47.057Z,9.01
2018-12-30T04:49:47.042Z,8.94
2018-12-30T04:50:47.046Z,8.98
2018-12-30T04:51:46.774Z,9.01
2018-12-30T04:52:47.008Z,8.98
2018-12-30T04:53:46.995Z,9.05
2018-12-30T04:54:46.986Z,9.04
2018-12-30T04:55:46.974Z,8.95
2018-12-30T04:56:46.969Z,9.08
2018-12-30T04:57:46.951Z,8.98
2018-12-30T04:58:46.934Z,9.08
2018-12-30T04:59:46.934Z,9.08
2018-12-30T05:00:46.912Z,9.05
2018-12-30T05:01:46.906Z,9.01
2018-12-30T05:02:46.899Z,9.02
2018-12-30T05:03:46.887Z,9.14
2018-12-30T05:04:46.871Z,9.1
2018-12-30T05:05:46.866Z,9.08
2018-12-30T05:06:46.847Z,9.08
2018-12-30T05:07:46.834Z,9.02
2018-12-30T05:08:46.824Z,9.02
2018-12-30T05:09:46.812Z,9.08
2018-12-30T05:10:46.802Z,9.1
2018-12-30T05:11:46.800Z,9.05
2018-12-30T05:12:46.780Z,9.21
2018-12-30T05:13:46.767Z,9.14
2018-12-30T05:14:46.756Z,9.21
2018-12-30T05:15:46.744Z,9.21
2018-12-30T05:16:46.730Z,9.18
2018-12-30T05:17:46.725Z,9.18
2018-12-30T05:18:46.715Z,9.24
2018-12-30T05:19:46.704Z,9.15
2018-12-30T05:20:46.690Z,9.1
2018-12-30T05:21:46.674Z,9.18
2018-12-30T05:22:46.666Z,9.18
2018-12-30T05:23:46.653Z,9.2
2018-12-30T05:24:46.639Z,9.13
2018-12-30T05:25:46.630Z,9.18
2018-12-30T05:26:46.634Z,9.18
2018-12-30T05:27:46.616Z,9.11
2018-12-30T05:28:46.604Z,9.13
2018-12-30T05:29:46.584Z,9.21
2018-12-30T05:30:46.574Z,9.23
2018-12-30T05:31:46.563Z,9.13
2018-12-30T05:32:46.550Z,9.18
2018-12-30T05:33:46.539Z,9.17
2018-12-30T05:34:46.530Z,9.2
2018-12-30T05:35:46.515Z,9.21
2018-12-30T05:36:46.504Z,9.21
2018-12-30T05:37:46.501Z,9.18
2018-12-30T05:38:46.483Z,9.15
2018-12-30T05:39:46.472Z,9.15
2018-12-30T05:40:46.461Z,9.28
2018-12-30T05:41:46.452Z,9.2
2018-12-30T05:42:46.438Z,9.23
2018-12-30T05:43:46.440Z,9.2
2018-12-30T05:44:46.418Z,9.13
2018-12-30T05:45:46.415Z,9.24
2018-12-30T05:46:46.444Z,9.17
2018-12-30T05:47:46.379Z,9.21
2018-12-30T05:48:46.370Z,9.2
2018-12-30T05:49:46.362Z,9.23
2018-12-30T05:50:46.349Z,9.18
2018-12-30T05:51:46.333Z,9.11
2018-12-30T05:52:47.007Z,9.17
2018-12-30T05:53:46.311Z,9.1
2018-12-30T05:54:46.300Z,9.13
2018-12-30T05:55:46.290Z,9.1
2018-12-30T05:56:46.280Z,9.1
2018-12-30T05:57:46.268Z,9.13
2018-12-30T05:58:46.283Z,9.11
2018-12-30T05:59:46.246Z,9.01
2018-12-30T06:00:46.230Z,9.01
2018-12-30T06:01:46.225Z,9.01
2018-12-30T06:02:46.212Z,8.96
2018-12-30T06:03:46.198Z,8.99
2018-12-30T06:04:46.193Z,8.92
2018-12-30T06:05:46.178Z,8.87
2018-12-30T06:06:46.166Z,8.86
2018-12-30T06:07:46.159Z,8.74
2018-12-30T06:08:46.145Z,8.7
2018-12-30T06:09:46.158Z,8.84
2018-12-30T06:10:46.153Z,8.81
2018-12-30T06:11:46.110Z,8.77
2018-12-30T06:12:46.096Z,8.68
2018-12-30T06:13:46.088Z,8.8
2018-12-30T06:14:46.076Z,8.77
2018-12-30T06:15:46.062Z,8.77
2018-12-30T06:16:46.052Z,8.73
2018-12-30T06:17:46.039Z,8.59
2018-12-30T06:18:46.026Z,8.7
2018-12-30T06:19:46.018Z,8.59
2018-12-30T06:20:46.009Z,8.59
2018-12-30T06:21:45.995Z,8.5
2018-12-30T06:22:52.004Z,8.48
2018-12-30T06:23:45.972Z,8.48
2018-12-30T06:24:45.956Z,8.52
2018-12-30T06:25:45.957Z,8.47
2018-12-30T06:26:45.938Z,8.48
2018-12-30T06:27:45.944Z,8.44
2018-12-30T06:28:45.911Z,8.38
2018-12-30T06:29:45.899Z,8.4
2018-12-30T06:30:45.967Z,8.38
2018-12-30T06:31:45.881Z,8.48
2018-12-30T06:32:45.630Z,8.33
2018-12-30T06:33:45.855Z,8.38
2018-12-30T06:34:45.845Z,8.36
2018-12-30T06:35:45.840Z,8.4
2018-12-30T06:36:45.817Z,8.34
2018-12-30T06:37:45.803Z,8.29
2018-12-30T06:38:45.554Z,8.25
2018-12-30T06:39:45.783Z,8.29
2018-12-30T06:40:45.782Z,8.2
2018-12-30T06:41:45.764Z,8.19
2018-12-30T06:42:45.749Z,8.19
2018-12-30T06:43:45.739Z,8.12
2018-12-30T06:44:45.722Z,8.2
2018-12-30T06:45:45.716Z,8.15
2018-12-30T06:46:45.701Z,8.11
2018-12-30T06:47:45.688Z,8.1
2018-12-30T06:48:45.678Z,8.05
2018-12-30T06:49:45.724Z,8.12
2018-12-30T06:50:45.653Z,8.01
2018-12-30T06:51:45.645Z,8.01
2018-12-30T06:52:45.628Z,8
2018-12-30T06:53:45.621Z,7.92
2018-12-30T06:54:45.606Z,7.86
2018-12-30T06:55:45.595Z,8
2018-12-30T06:56:45.588Z,7.85
2018-12-30T06:57:45.578Z,7.87
2018-12-30T06:58:45.555Z,7.89
2018-12-30T06:59:45.544Z,7.89
2018-12-30T07:00:45.538Z,7.86
2018-12-30T07:01:45.523Z,7.86
2018-12-30T07:02:45.513Z,7.83
2018-12-30T07:03:45.498Z,7.86
2018-12-30T07:04:45.482Z,7.86
2018-12-30T07:05:45.471Z,7.85
2018-12-30T07:06:45.465Z,7.79
2018-12-30T07:07:45.447Z,7.93
2018-12-30T07:08:45.440Z,7.89
2018-12-30T07:09:45.422Z,7.92
2018-12-30T07:10:45.411Z,7.95
2018-12-30T07:11:45.399Z,7.93
2018-12-30T07:12:45.395Z,7.92
2018-12-30T07:13:45.386Z,7.87
2018-12-30T07:14:45.364Z,7.83
2018-12-30T07:15:45.352Z,7.86
2018-12-30T07:16:45.343Z,7.8
2018-12-30T07:17:45.330Z,7.74
2018-12-30T07:18:45.321Z,7.79
2018-12-30T07:19:45.434Z,7.72
2018-12-30T07:20:45.297Z,7.79
2018-12-30T07:21:45.278Z,7.87
2018-12-30T07:22:45.292Z,7.74
2018-12-30T07:23:45.261Z,7.74
2018-12-30T07:24:45.244Z,7.85
2018-12-30T07:25:45.235Z,7.69
2018-12-30T07:26:45.219Z,7.67
2018-12-30T07:27:45.211Z,7.69
2018-12-30T07:28:45.198Z,7.6
2018-12-30T07:29:45.185Z,7.55
2018-12-30T07:30:45.174Z,7.57
2018-12-30T07:31:45.154Z,7.53
2018-12-30T07:32:45.152Z,7.57
2018-12-30T07:33:45.134Z,7.6
2018-12-30T07:34:45.123Z,7.58
2018-12-30T07:35:45.107Z,7.5
2018-12-30T07:36:45.096Z,7.49
2018-12-30T07:37:45.096Z,7.43
2018-12-30T07:38:45.070Z,7.53
2018-12-30T07:39:45.060Z,7.45
2018-12-30T07:40:45.049Z,7.5
2018-12-30T07:41:45.040Z,7.52
2018-12-30T07:42:45.024Z,7.46
2018-12-30T07:43:45.012Z,7.43
2018-12-30T07:44:45.086Z,7.42
2018-12-30T07:45:44.987Z,7.48
2018-12-30T07:46:44.970Z,7.37
2018-12-30T07:47:44.962Z,7.42
2018-12-30T07:48:44.949Z,7.28
2018-12-30T07:49:44.939Z,7.28
2018-12-30T07:50:44.925Z,7.35
2018-12-30T07:51:44.914Z,7.3
2018-12-30T07:52:44.902Z,7.31
2018-12-30T07:53:44.888Z,7.31
2018-12-30T07:54:44.874Z,7.34
2018-12-30T07:55:44.865Z,7.35
2018-12-30T07:56:44.850Z,7.4
2018-12-30T07:57:44.594Z,7.34
2018-12-30T07:58:44.830Z,7.37
2018-12-30T07:59:44.813Z,7.4
2018-12-30T08:00:44.873Z,7.43
2018-12-30T08:01:44.792Z,7.48
2018-12-30T08:02:44.775Z,7.45
2018-12-30T08:03:44.769Z,7.46
2018-12-30T08:04:44.753Z,7.43
2018-12-30T08:05:44.744Z,7.46
2018-12-30T08:06:44.727Z,7.43
2018-12-30T08:07:44.793Z,7.43
2018-12-30T08:08:44.701Z,7.35
2018-12-30T08:09:44.768Z,7.43
2018-12-30T08:10:44.730Z,7.46
2018-12-30T08:11:44.660Z,7.35
2018-12-30T08:12:44.649Z,7.39
2018-12-30T08:13:44.640Z,7.34
2018-12-30T08:14:44.630Z,7.32
2018-12-30T08:15:44.616Z,7.25
2018-12-30T08:16:44.601Z,7.25
2018-12-30T08:17:44.591Z,7.27
2018-12-30T08:18:44.574Z,7.28
2018-12-30T08:19:44.566Z,7.27
2018-12-30T08:20:44.553Z,7.42
2018-12-30T08:21:44.555Z,7.42
2018-12-30T08:22:44.528Z,7.4
2018-12-30T08:23:44.516Z,7.4
2018-12-30T08:24:44.514Z,7.48
2018-12-30T08:25:44.493Z,7.43
2018-12-30T08:26:44.479Z,7.39
2018-12-30T08:27:44.468Z,7.39
2018-12-30T08:28:45.432Z,7.28
2018-12-30T08:29:44.443Z,7.3
2018-12-30T08:30:44.431Z,7.31
2018-12-30T08:31:44.429Z,7.37
2018-12-30T08:32:44.404Z,7.32
2018-12-30T08:33:44.391Z,7.35
2018-12-30T08:34:44.380Z,7.31
2018-12-30T08:35:44.373Z,7.31
2018-12-30T08:36:44.355Z,7.31
2018-12-30T08:37:44.341Z,7.31
2018-12-30T08:38:44.332Z,7.27
2018-12-30T08:39:44.778Z,7.27
2018-12-30T08:40:44.305Z,7.39
2018-12-30T08:41:44.294Z,7.39
2018-12-30T08:42:44.279Z,7.43
2018-12-30T08:43:44.269Z,7.46
2018-12-30T08:44:44.256Z,7.57
2018-12-30T08:45:44.245Z,7.58
2018-12-30T08:46:44.233Z,7.46
2018-12-30T08:47:44.219Z,7.55
2018-12-30T08:48:44.204Z,7.52
2018-12-30T08:49:44.192Z,7.5
2018-12-30T08:50:44.179Z,7.5
2018-12-30T08:51:44.183Z,7.46
2018-12-30T08:52:43.913Z,7.64
2018-12-30T08:53:44.154Z,7.5
2018-12-30T08:54:44.140Z,7.5
2018-12-30T08:55:44.120Z,7.57
2018-12-30T08:56:44.108Z,7.52
2018-12-30T08:57:44.095Z,7.57
2018-12-30T08:58:44.149Z,7.48
2018-12-30T08:59:44.071Z,7.55
2018-12-30T09:00:44.061Z,7.57
2018-12-30T09:01:44.046Z,7.52
2018-12-30T09:02:44.034Z,7.58
2018-12-30T09:03:44.021Z,7.55
2018-12-30T09:04:44.009Z,7.58
2018-12-30T09:05:44.106Z,7.6
2018-12-30T09:06:43.989Z,7.63
2018-12-30T09:07:44.071Z,7.6
2018-12-30T09:08:44.043Z,7.68
2018-12-30T09:09:43.955Z,7.68
2018-12-30T09:10:43.934Z,7.82
2018-12-30T09:11:43.926Z,7.74
2018-12-30T09:12:43.916Z,7.67
2018-12-30T09:13:43.898Z,7.75
2018-12-30T09:14:43.887Z,7.8
2018-12-30T09:15:43.881Z,7.79
2018-12-30T09:16:43.863Z,7.8
2018-12-30T09:17:43.847Z,7.79
2018-12-30T09:18:43.843Z,7.82
2018-12-30T09:19:43.826Z,7.71
2018-12-30T09:20:43.813Z,7.77
2018-12-30T09:21:43.805Z,7.71
2018-12-30T09:22:43.789Z,7.83
2018-12-30T09:23:43.786Z,7.72
2018-12-30T09:24:43.764Z,7.74
2018-12-30T09:25:43.752Z,7.79
2018-12-30T09:26:43.741Z,7.67
2018-12-30T09:27:43.728Z,7.69
2018-12-30T09:28:43.734Z,7.77
2018-12-30T09:29:43.708Z,7.71
2018-12-30T09:30:43.695Z,7.77
2018-12-30T09:31:43.681Z,7.74
2018-12-30T09:32:43.683Z,7.68
2018-12-30T09:33:43.657Z,7.72
2018-12-30T09:34:43.646Z,7.77
2018-12-30T09:35:43.884Z,7.82
2018-12-30T09:36:43.622Z,7.8
2018-12-30T09:37:43.607Z,7.8
2018-12-30T09:38:43.605Z,7.82
2018-12-30T09:39:43.584Z,7.86
2018-12-30T09:40:43.571Z,7.85
2018-12-30T09:41:43.561Z,7.87
2018-12-30T09:42:43.553Z,7.89
2018-12-30T09:43:43.546Z,8
2018-12-30T09:44:43.532Z,7.97
2018-12-30T09:45:43.517Z,8.01
2018-12-30T09:46:43.577Z,8
2018-12-30T09:47:43.488Z,7.97
2018-12-30T09:48:43.478Z,8
2018-12-30T09:49:43.464Z,8
2018-12-30T09:50:43.460Z,7.98
2018-12-30T09:51:43.438Z,7.98
2018-12-30T09:52:43.464Z,8.01
2018-12-30T09:53:49.968Z,8.01
2018-12-30T09:54:43.408Z,8.05
2018-12-30T09:55:43.393Z,8.01
2018-12-30T09:56:43.390Z,8.02
2018-12-30T09:57:43.365Z,8.11
2018-12-30T09:58:43.359Z,8.12
2018-12-30T09:59:43.109Z,8.15
2018-12-30T10:00:43.337Z,8.08
2018-12-30T10:01:43.322Z,8.16
2018-12-30T10:02:43.308Z,8.2
2018-12-30T10:03:43.297Z,8.23
2018-12-30T10:04:43.289Z,8.22
2018-12-30T10:05:43.274Z,8.22
2018-12-30T10:06:43.262Z,8.33
2018-12-30T10:07:43.255Z,8.3
2018-12-30T10:08:43.242Z,8.36
2018-12-30T10:09:43.232Z,8.3
2018-12-30T10:10:43.216Z,8.36
2018-12-30T10:11:43.203Z,8.36
2018-12-30T10:12:43.195Z,8.33
2018-12-30T10:13:43.179Z,8.29
2018-12-30T10:14:43.170Z,8.5
2018-12-30T10:15:42.922Z,8.3
2018-12-30T10:16:43.179Z,8.33
2018-12-30T10:17:43.137Z,8.34
2018-12-30T10:18:43.128Z,8.34
2018-12-30T10:19:43.124Z,8.37
2018-12-30T10:20:43.102Z,8.45
2018-12-30T10:21:43.086Z,8.45
2018-12-30T10:22:43.081Z,8.38
2018-12-30T10:23:43.085Z,8.53
2018-12-30T10:24:43.053Z,8.48
2018-12-30T10:25:43.132Z,8.5
2018-12-30T10:26:43.038Z,8.5
2018-12-30T10:27:43.027Z,8.66
2018-12-30T10:28:43.015Z,8.58
2018-12-30T10:29:42.997Z,8.63
2018-12-30T10:30:42.986Z,8.73
2018-12-30T10:31:42.974Z,8.71
2018-12-30T10:32:42.963Z,8.71
2018-12-30T10:33:42.951Z,8.68
2018-12-30T10:34:42.942Z,8.65
2018-12-30T10:35:42.930Z,8.66
2018-12-30T10:36:42.919Z,8.68
2018-12-30T10:37:42.910Z,8.76
2018-12-30T10:38:42.895Z,8.7
2018-12-30T10:39:42.885Z,8.84
2018-12-30T10:40:42.873Z,8.84
2018-12-30T10:41:42.862Z,8.87
2018-12-30T10:42:42.855Z,8.96
2018-12-30T10:43:42.840Z,8.99
2018-12-30T10:44:42.833Z,9.01
2018-12-30T10:45:42.817Z,8.98
2018-12-30T10:46:42.808Z,8.98
2018-12-30T10:47:42.799Z,8.99
2018-12-30T10:48:42.784Z,9.04
2018-12-30T10:49:42.774Z,9.02
2018-12-30T10:50:42.765Z,9.04
2018-12-30T10:51:42.754Z,9.13
2018-12-30T10:52:42.747Z,9.05
2018-12-30T10:53:42.734Z,9.08
2018-12-30T10:54:42.723Z,9.1
2018-12-30T10:55:42.838Z,9.08
2018-12-30T10:56:42.695Z,9.05
2018-12-30T10:57:42.687Z,9.08
2018-12-30T10:58:42.675Z,9.1
2018-12-30T10:59:42.663Z,8.99
2018-12-30T11:00:42.655Z,9.1
2018-12-30T11:01:42.648Z,9.11
2018-12-30T11:02:42.634Z,9.11
2018-12-30T11:03:42.706Z,9.13
2018-12-30T11:04:42.608Z,9.1
2018-12-30T11:05:42.601Z,9.05
2018-12-30T11:06:42.588Z,9.11
2018-12-30T11:07:42.580Z,9.1
2018-12-30T11:08:42.565Z,9.14
2018-12-30T11:09:42.561Z,9.21
2018-12-30T11:10:42.547Z,9.15
2018-12-30T11:11:42.537Z,9.14
2018-12-30T11:12:42.524Z,9.18
2018-12-30T11:13:42.591Z,9.24
2018-12-30T11:14:42.499Z,9.18
2018-12-30T11:15:42.498Z,9.24
2018-12-30T11:16:42.482Z,9.28
2018-12-30T11:17:42.470Z,9.32
2018-12-30T11:18:43.589Z,9.32
2018-12-30T11:19:42.449Z,9.4
2018-12-30T11:20:42.439Z,9.47
2018-12-30T11:21:42.426Z,9.4
2018-12-30T11:22:42.417Z,9.5
2018-12-30T11:23:42.404Z,9.46
2018-12-30T11:24:42.395Z,9.48
2018-12-30T11:25:42.382Z,9.46
2018-12-30T11:26:42.383Z,9.53
2018-12-30T11:27:42.364Z,9.6
2018-12-30T11:28:42.359Z,9.61
2018-12-30T11:29:42.343Z,9.58
2018-12-30T11:30:42.330Z,9.54
2018-12-30T11:31:42.329Z,9.54
2018-12-30T11:32:42.310Z,9.47
2018-12-30T11:33:42.298Z,9.56
2018-12-30T11:34:42.286Z,9.53
2018-12-30T11:35:42.278Z,9.56
2018-12-30T11:36:42.269Z,9.61
2018-12-30T11:37:42.258Z,9.64
2018-12-30T11:38:42.248Z,9.61
2018-12-30T11:39:42.239Z,9.6
2018-12-30T11:40:42.226Z,9.56
2018-12-30T11:41:42.214Z,9.58
2018-12-30T11:42:42.210Z,9.47
2018-12-30T11:43:42.194Z,9.5
2018-12-30T11:44:42.187Z,9.43
2018-12-30T11:45:42.176Z,9.54
2018-12-30T11:46:42.163Z,9.57
2018-12-30T11:47:42.154Z,9.57
2018-12-30T11:48:42.143Z,9.58
2018-12-30T11:49:42.132Z,9.64
2018-12-30T11:50:42.126Z,9.61
2018-12-30T11:51:42.112Z,9.69
2018-12-30T11:52:42.101Z,9.79
2018-12-30T11:53:42.091Z,9.68
2018-12-30T11:54:42.080Z,9.71
2018-12-30T11:55:42.072Z,9.74
2018-12-30T11:56:42.068Z,9.74
2018-12-30T11:57:42.049Z,9.74
2018-12-30T11:58:42.038Z,9.66
2018-12-30T11:59:42.031Z,9.66
2018-12-30T12:00:42.019Z,9.71
2018-12-30T12:01:42.014Z,9.74
2018-12-30T12:02:42.001Z,9.75
2018-12-30T12:03:41.991Z,9.76
2018-12-30T12:04:41.991Z,9.81
2018-12-30T12:05:41.966Z,9.76
2018-12-30T12:06:41.955Z,9.87
2018-12-30T12:07:41.964Z,9.83
2018-12-30T12:08:41.934Z,9.94
2018-12-30T12:09:41.926Z,9.83
2018-12-30T12:10:41.916Z,9.9
2018-12-30T12:11:41.906Z,9.74
2018-12-30T12:12:48.603Z,9.76
2018-12-30T12:13:41.883Z,9.83
2018-12-30T12:14:41.874Z,9.81
2018-12-30T12:15:43.092Z,9.89
2018-12-30T12:16:41.856Z,9.78
2018-12-30T12:17:41.846Z,9.81
2018-12-30T12:18:41.837Z,9.78
2018-12-30T12:19:41.831Z,9.83
2018-12-30T12:20:41.810Z,9.83
2018-12-30T12:21:41.802Z,9.84
2018-12-30T12:22:41.792Z,9.86
2018-12-30T12:23:41.779Z,9.81
2018-12-30T12:24:41.769Z,9.81
2018-12-30T12:25:41.764Z,9.81
2018-12-30T12:26:41.750Z,9.76
2018-12-30T12:27:41.738Z,9.75
2018-12-30T12:28:41.729Z,9.69
2018-12-30T12:29:41.720Z,9.65
2018-12-30T12:30:41.708Z,9.75
2018-12-30T12:31:41.697Z,9.86
2018-12-30T12:32:41.689Z,9.81
2018-12-30T12:33:41.679Z,9.78
2018-12-30T12:34:41.674Z,9.79
2018-12-30T12:35:41.657Z,9.76
2018-12-30T12:36:41.645Z,9.69
2018-12-30T12:37:41.635Z,9.76
2018-12-30T12:38:41.628Z,9.84
2018-12-30T12:39:41.615Z,9.74
2018-12-30T12:40:41.617Z,9.78
2018-12-30T12:41:41.596Z,9.81
2018-12-30T12:42:41.587Z,9.81
2018-12-30T12:43:41.574Z,9.79
2018-12-30T12:44:41.564Z,9.84
2018-12-30T12:45:41.553Z,9.84
2018-12-30T12:46:41.545Z,9.75
2018-12-30T12:47:41.539Z,9.83
2018-12-30T12:48:41.521Z,9.81
2018-12-30T12:49:41.510Z,9.87
2018-12-30T12:50:41.503Z,9.87
2018-12-30T12:51:41.495Z,9.84
2018-12-30T12:52:41.479Z,9.79
2018-12-30T12:53:41.473Z,9.81
2018-12-30T12:54:41.455Z,9.87
2018-12-30T12:55:41.650Z,9.86
2018-12-30T12:56:41.437Z,9.84
2018-12-30T12:57:41.424Z,9.84
2018-12-30T12:58:41.419Z,9.9
2018-12-30T12:59:41.416Z,9.86
2018-12-30T13:00:41.399Z,9.91
2018-12-30T13:01:41.753Z,9.86
2018-12-30T13:02:41.372Z,9.81
2018-12-30T13:03:41.363Z,9.93
2018-12-30T13:04:41.354Z,9.83
2018-12-30T13:05:41.343Z,9.83
2018-12-30T13:06:41.336Z,9.89
2018-12-30T13:07:41.401Z,9.84
2018-12-30T13:08:41.321Z,9.87
2018-12-30T13:09:41.299Z,9.9
2018-12-30T13:10:41.292Z,9.87
2018-12-30T13:11:41.278Z,9.86
2018-12-30T13:12:41.267Z,9.84
2018-12-30T13:13:41.258Z,9.83
2018-12-30T13:14:41.250Z,9.81
2018-12-30T13:15:41.239Z,9.83
2018-12-30T13:16:41.228Z,9.84
2018-12-30T13:17:41.215Z,9.79
2018-12-30T13:18:41.209Z,9.79
2018-12-30T13:19:41.221Z,9.84
2018-12-30T13:20:41.185Z,9.83
2018-12-30T13:21:41.175Z,9.86
2018-12-30T13:22:41.165Z,9.89
2018-12-30T13:23:41.154Z,9.97